Time;durP1;ratioP1;P1;durP2;ratioP2;P2;SDS_P1;SDS_P2;PMS_P1;PMS_P2;Temp;Humidity;BMP_temperature;BMP_pressure;BME280_temperature;BME280_humidity;BME280_pressure;Samples;Min_cycle;Max_cycle;Signal;HPM_P1;HPM_P2
2023/11/21 00:01:58;;;;;;;29.15;27.17;;;13.00;99.90;;;;;;5011421;28;20061;-72
2023/11/21 00:04:24;;;;;;;27.65;25.75;;;13.00;99.90;;;;;;5012040;28;20038;-72
2023/11/21 00:06:50;;;;;;;29.25;27.05;;;13.10;99.90;;;;;;5010920;28;20034;-72
2023/11/21 00:09:17;;;;;;;32.95;30.75;;;13.20;99.90;;;;;;5012374;28;20037;-72
2023/11/21 00:11:44;;;;;;;32.60;30.42;;;13.20;99.90;;;;;;5010594;28;20053;-72
2023/11/21 00:14:15;;;;;;;28.42;26.58;;;13.20;99.90;;;;;;5012461;28;20029;-72
2023/11/21 00:16:41;;;;;;;31.77;29.50;;;13.20;99.90;;;;;;4994710;28;20050;-73
2023/11/21 00:19:07;;;;;;;36.42;34.17;;;13.30;99.90;;;;;;4992752;28;20375;-73
2023/11/21 00:21:33;;;;;;;36.00;33.53;;;13.30;99.90;;;;;;4992188;28;20046;-72
2023/11/21 00:23:59;;;;;;;32.38;29.98;;;13.30;99.90;;;;;;4991108;28;20479;-71
2023/11/21 00:26:25;;;;;;;37.55;35.20;;;13.30;99.90;;;;;;5001918;28;20030;-71
2023/11/21 00:28:51;;;;;;;35.55;32.85;;;13.30;99.90;;;;;;5010993;28;20049;-72
2023/11/21 00:31:18;;;;;;;33.90;31.60;;;13.30;99.90;;;;;;5011326;28;20038;-71
2023/11/21 00:33:44;;;;;;;32.83;30.55;;;13.30;99.90;;;;;;5012029;28;20037;-71
2023/11/21 00:36:10;;;;;;;43.17;40.35;;;13.30;99.90;;;;;;5011632;28;20042;-72
2023/11/21 00:38:39;;;;;;;44.25;41.75;;;13.40;99.90;;;;;;5011972;28;20374;-72
2023/11/21 00:41:06;;;;;;;49.10;46.00;;;13.40;99.90;;;;;;5009973;28;20041;-72
2023/11/21 00:43:35;;;;;;;40.65;38.20;;;13.40;99.90;;;;;;5012323;28;20041;-71
2023/11/21 00:46:05;;;;;;;50.33;47.15;;;13.40;99.90;;;;;;5015184;28;20402;-71
2023/11/21 00:48:31;;;;;;;48.78;45.72;;;13.40;99.90;;;;;;4998192;28;20045;-71
2023/11/21 00:50:57;;;;;;;42.75;39.88;;;13.40;99.90;;;;;;5014958;28;20048;-71
2023/11/21 00:53:23;;;;;;;39.08;36.63;;;13.40;99.90;;;;;;5015529;28;20387;-72
2023/11/21 00:55:49;;;;;;;57.47;53.92;;;13.30;99.90;;;;;;5014664;28;20030;-71
2023/11/21 00:58:15;;;;;;;40.80;38.08;;;13.30;99.90;;;;;;5015626;28;20026;-71
2023/11/21 01:00:42;;;;;;;44.47;41.42;;;13.30;99.90;;;;;;5013215;28;20038;-71
2023/11/21 01:03:08;;;;;;;43.33;39.92;;;13.30;99.90;;;;;;5015212;28;20037;-71
2023/11/21 01:05:34;;;;;;;39.33;36.55;;;13.20;99.90;;;;;;5014864;28;20030;-72
2023/11/21 01:08:00;;;;;;;47.53;44.50;;;13.10;99.90;;;;;;5015387;28;20040;-71
2023/11/21 01:10:26;;;;;;;41.83;38.70;;;13.10;99.90;;;;;;5014279;28;20089;-71
2023/11/21 01:12:52;;;;;;;40.90;38.28;;;13.10;99.90;;;;;;5013896;28;20033;-72
2023/11/21 01:15:18;;;;;;;48.67;45.53;;;13.10;99.90;;;;;;5006861;28;20394;-72
2023/11/21 01:17:44;;;;;;;37.85;35.13;;;13.10;99.90;;;;;;4995609;28;20038;-72
2023/11/21 01:20:12;;;;;;;36.88;34.42;;;13.10;99.90;;;;;;4994888;28;20479;-73
2023/11/21 01:22:39;;;;;;;44.22;40.90;;;13.00;99.90;;;;;;4995203;28;20034;-72
2023/11/21 01:25:07;;;;;;;43.35;40.50;;;13.00;99.90;;;;;;4993383;28;20057;-68
2023/11/21 01:27:34;;;;;;;44.53;41.85;;;12.90;99.90;;;;;;5014366;28;20046;-68
2023/11/21 01:30:01;;;;;;;50.47;47.25;;;12.90;99.90;;;;;;5014836;28;20037;-68
2023/11/21 01:32:28;;;;;;;40.17;37.83;;;12.90;99.90;;;;;;5013797;28;20038;-68
2023/11/21 01:34:55;;;;;;;43.20;40.05;;;12.80;99.90;;;;;;5014798;28;20390;-67
2023/11/21 01:37:21;;;;;;;47.88;44.63;;;12.80;99.90;;;;;;5013967;28;20057;-68
2023/11/21 01:39:48;;;;;;;41.63;38.92;;;12.80;99.90;;;;;;5012780;28;20049;-68
2023/11/21 01:42:14;;;;;;;49.08;46.10;;;12.90;99.90;;;;;;5014150;28;20042;-68
2023/11/21 01:44:40;;;;;;;37.63;35.33;;;12.90;99.90;;;;;;5014514;28;20359;-68
2023/11/21 01:47:07;;;;;;;37.30;34.92;;;12.80;99.90;;;;;;5013546;28;20514;-67
2023/11/21 01:49:33;;;;;;;47.03;44.03;;;12.70;99.90;;;;;;5012995;28;20045;-68
2023/11/21 01:51:59;;;;;;;38.97;36.20;;;12.70;99.90;;;;;;5013720;28;20048;-68
2023/11/21 01:54:25;;;;;;;34.38;31.95;;;12.70;99.90;;;;;;5012049;28;20049;-68
2023/11/21 01:56:51;;;;;;;34.15;31.65;;;12.60;99.90;;;;;;5012524;28;20046;-68
2023/11/21 01:59:20;;;;;;;31.80;29.55;;;12.60;99.90;;;;;;5013087;28;20030;-68
2023/11/21 02:01:46;;;;;;;36.10;33.95;;;12.60;99.90;;;;;;5011589;28;20510;-67
2023/11/21 02:04:13;;;;;;;30.67;28.58;;;12.50;99.90;;;;;;5014278;28;20050;-68
2023/11/21 02:06:39;;;;;;;30.65;28.67;;;12.50;99.90;;;;;;5012109;28;20030;-67
2023/11/21 02:09:05;;;;;;;36.17;33.75;;;12.50;99.90;;;;;;5012936;28;20038;-68
2023/11/21 02:11:34;;;;;;;33.50;31.27;;;12.50;99.90;;;;;;5013696;28;20030;-68
2023/11/21 02:14:00;;;;;;;30.52;28.63;;;12.50;99.90;;;;;;5013835;28;20498;-67
2023/11/21 02:16:27;;;;;;;34.15;31.73;;;12.40;99.90;;;;;;5012604;28;20082;-68
2023/11/21 02:18:53;;;;;;;32.10;29.90;;;12.40;99.90;;;;;;5012821;28;20088;-68
2023/11/21 02:21:19;;;;;;;33.47;31.33;;;12.30;99.90;;;;;;5012894;28;20038;-67
2023/11/21 02:23:46;;;;;;;28.30;26.20;;;12.30;99.90;;;;;;5002050;28;20038;-68
2023/11/21 02:26:13;;;;;;;35.55;32.97;;;12.30;99.90;;;;;;4993753;28;20487;-72
2023/11/21 02:28:40;;;;;;;36.33;33.67;;;12.20;99.90;;;;;;4992927;28;20389;-72
2023/11/21 02:31:07;;;;;;;40.45;37.60;;;12.30;99.90;;;;;;4992173;28;20053;-72
2023/11/21 02:33:34;;;;;;;43.08;40.50;;;12.30;99.90;;;;;;4993146;28;20046;-71
2023/11/21 02:36:01;;;;;;;62.92;59.20;;;12.30;99.90;;;;;;4991987;28;20483;-72
2023/11/21 02:38:27;;;;;;;36.72;34.40;;;12.30;99.90;;;;;;4992850;28;20041;-72
2023/11/21 02:40:53;;;;;;;61.05;57.10;;;12.40;99.90;;;;;;4992280;28;20054;-72
2023/11/21 02:43:19;;;;;;;52.00;48.72;;;12.40;99.90;;;;;;5012534;28;20053;-72
2023/11/21 02:45:45;;;;;;;29.10;26.63;;;12.30;99.90;;;;;;5011370;28;20038;-72
2023/11/21 02:48:11;;;;;;;25.52;23.65;;;12.30;99.90;;;;;;5012359;28;20037;-72
2023/11/21 02:50:37;;;;;;;27.48;25.55;;;12.40;99.90;;;;;;5012157;28;20038;-72
2023/11/21 02:53:05;;;;;;;28.70;26.63;;;12.40;99.90;;;;;;5012285;28;20049;-72
2023/11/21 02:55:34;;;;;;;29.38;27.17;;;12.40;99.90;;;;;;5012751;28;20096;-72
2023/11/21 02:58:01;;;;;;;29.83;27.77;;;12.40;99.90;;;;;;4996384;28;20044;-72
2023/11/21 03:00:27;;;;;;;29.00;26.80;;;12.50;99.90;;;;;;5006548;28;20038;-72
2023/11/21 03:02:55;;;;;;;22.55;20.90;;;12.50;99.90;;;;;;4993669;28;20038;-72
2023/11/21 03:05:21;;;;;;;23.90;21.83;;;12.40;99.90;;;;;;4992734;28;20022;-72
2023/11/21 03:07:47;;;;;;;23.05;21.38;;;12.40;99.90;;;;;;4992408;28;20353;-71
2023/11/21 03:10:13;;;;;;;28.73;26.75;;;12.50;99.90;;;;;;4992966;28;20030;-72
2023/11/21 03:12:39;;;;;;;24.35;22.35;;;12.50;99.90;;;;;;4996222;28;20041;-72
2023/11/21 03:15:06;;;;;;;21.40;19.50;;;12.50;99.90;;;;;;4991606;28;20518;-71
2023/11/21 03:17:36;;;;;;;29.13;27.27;;;12.50;99.90;;;;;;4993015;28;20444;-72
2023/11/21 03:20:03;;;;;;;29.50;27.35;;;12.40;99.90;;;;;;4991776;28;20043;-72
2023/11/21 03:22:29;;;;;;;30.42;28.52;;;12.40;99.90;;;;;;4992613;28;20046;-72
2023/11/21 03:24:55;;;;;;;37.47;34.80;;;12.50;99.90;;;;;;4991920;28;20046;-71
2023/11/21 03:27:21;;;;;;;43.75;41.33;;;12.50;99.90;;;;;;5010788;28;20034;-72
2023/11/21 03:29:48;;;;;;;23.58;22.23;;;12.50;99.90;;;;;;5011384;28;20049;-67
2023/11/21 03:32:14;;;;;;;32.65;30.33;;;12.50;99.90;;;;;;5011692;28;20407;-67
2023/11/21 03:34:55;;;;;;;32.42;30.20;;;12.40;99.90;;;;;;5012330;28;20026;-67
2023/11/21 03:37:21;;;;;;;22.80;21.25;;;12.40;99.90;;;;;;5012096;28;20046;-67
2023/11/21 03:39:47;;;;;;;24.08;22.08;;;12.40;99.90;;;;;;5012293;28;20032;-67
2023/11/21 03:42:13;;;;;;;26.98;24.98;;;12.50;99.90;;;;;;5011921;28;20049;-67
2023/11/21 03:44:39;;;;;;;31.70;29.17;;;12.50;99.90;;;;;;5011525;28;20018;-67
2023/11/21 03:47:05;;;;;;;34.50;32.33;;;12.60;99.90;;;;;;5011683;28;20049;-67
2023/11/21 03:49:31;;;;;;;36.15;33.45;;;12.50;99.90;;;;;;5012032;28;20033;-67
2023/11/21 03:51:57;;;;;;;28.70;26.45;;;12.50;99.90;;;;;;5011713;28;20037;-67
2023/11/21 03:54:23;;;;;;;29.13;26.75;;;12.50;99.90;;;;;;5012425;28;20026;-67
2023/11/21 03:56:49;;;;;;;29.75;27.77;;;12.50;99.90;;;;;;5011989;28;20078;-67
2023/11/21 03:59:15;;;;;;;29.08;26.80;;;12.30;99.90;;;;;;5001812;28;20041;-67
2023/11/21 04:01:42;;;;;;;26.90;24.88;;;12.30;99.90;;;;;;4991282;28;20055;-67
2023/11/21 04:04:08;;;;;;;35.72;33.25;;;12.30;99.90;;;;;;4985324;28;20033;-67
2023/11/21 04:06:35;;;;;;;27.48;25.52;;;12.30;99.90;;;;;;4983028;28;20038;-67
2023/11/21 04:09:04;;;;;;;29.33;27.15;;;12.30;99.90;;;;;;4990250;28;20042;-67
2023/11/21 04:11:30;;;;;;;35.00;32.65;;;12.30;99.90;;;;;;5002560;28;20026;-67
2023/11/21 04:13:56;;;;;;;30.38;28.58;;;12.30;99.90;;;;;;4992378;28;20042;-67
2023/11/21 04:16:22;;;;;;;28.08;26.30;;;12.20;99.90;;;;;;5001151;28;20150;-67
2023/11/21 04:18:49;;;;;;;31.65;29.52;;;12.30;99.90;;;;;;5013818;28;20029;-67
2023/11/21 04:21:15;;;;;;;34.22;31.65;;;12.20;99.90;;;;;;5014828;28;20057;-67
2023/11/21 04:23:41;;;;;;;34.28;32.22;;;12.20;99.90;;;;;;5015109;28;20030;-67
2023/11/21 04:26:07;;;;;;;37.95;35.67;;;12.20;99.90;;;;;;4994631;28;20061;-67
2023/11/21 04:28:34;;;;;;;26.70;24.90;;;12.10;99.90;;;;;;4996212;28;20034;-67
2023/11/21 04:31:00;;;;;;;32.58;30.20;;;12.10;99.90;;;;;;5007088;28;20037;-67
2023/11/21 04:33:26;;;;;;;32.53;30.65;;;12.10;99.90;;;;;;5004540;28;20038;-67
2023/11/21 04:35:52;;;;;;;32.45;30.40;;;12.10;99.90;;;;;;4995921;28;20031;-67
2023/11/21 04:38:19;;;;;;;30.20;28.40;;;12.10;99.90;;;;;;4996248;28;20029;-67
2023/11/21 04:40:45;;;;;;;28.23;26.38;;;12.10;99.90;;;;;;4996991;28;20041;-67
2023/11/21 04:43:11;;;;;;;34.33;32.40;;;12.10;99.90;;;;;;4995941;28;20042;-67
2023/11/21 04:45:38;;;;;;;32.50;30.50;;;12.20;99.90;;;;;;4999173;28;20038;-67
2023/11/21 04:48:05;;;;;;;39.92;37.35;;;12.20;99.90;;;;;;5015633;28;20387;-67
2023/11/21 04:50:31;;;;;;;34.30;31.95;;;12.30;99.90;;;;;;5014680;28;20022;-67
2023/11/21 04:52:57;;;;;;;37.03;34.58;;;12.20;99.90;;;;;;5015383;28;20037;-67
2023/11/21 04:55:23;;;;;;;37.78;35.30;;;12.20;99.90;;;;;;5014897;28;20045;-67
2023/11/21 04:57:49;;;;;;;35.80;33.42;;;12.20;99.90;;;;;;5015405;28;20034;-67
2023/11/21 05:00:16;;;;;;;32.58;30.42;;;12.30;99.90;;;;;;5014412;28;20057;-67
2023/11/21 05:02:43;;;;;;;36.83;34.60;;;12.30;99.90;;;;;;4996175;28;20061;-67
2023/11/21 05:05:10;;;;;;;35.60;33.50;;;12.30;99.90;;;;;;4995646;28;20518;-67
2023/11/21 05:07:36;;;;;;;32.13;30.15;;;12.10;99.90;;;;;;4995608;28;20030;-67
2023/11/21 05:10:04;;;;;;;33.10;30.83;;;12.00;99.90;;;;;;4995264;28;20396;-67
2023/11/21 05:12:35;;;;;;;31.92;29.80;;;11.90;99.90;;;;;;5013780;28;20034;-72
2023/11/21 05:15:01;;;;;;;31.38;29.02;;;12.00;99.90;;;;;;5004156;28;20046;-72
2023/11/21 05:17:27;;;;;;;32.17;30.10;;;11.90;99.90;;;;;;5013298;28;20376;-73
2023/11/21 05:19:53;;;;;;;30.42;28.40;;;11.90;99.90;;;;;;5015050;28;20044;-72
2023/11/21 05:22:20;;;;;;;32.92;30.75;;;11.80;99.90;;;;;;4998186;28;20422;-72
2023/11/21 05:24:46;;;;;;;28.95;26.98;;;11.80;99.90;;;;;;4995833;28;20050;-73
2023/11/21 05:27:12;;;;;;;27.55;25.60;;;11.80;99.90;;;;;;4993908;28;20475;-73
2023/11/21 05:29:38;;;;;;;26.98;24.98;;;11.80;99.90;;;;;;4994048;28;20645;-72
2023/11/21 05:32:05;;;;;;;29.42;27.60;;;11.70;99.90;;;;;;4995700;28;20034;-73
2023/11/21 05:34:31;;;;;;;30.20;28.08;;;11.70;99.90;;;;;;5005055;28;20041;-72
2023/11/21 05:36:58;;;;;;;32.28;30.23;;;11.80;99.90;;;;;;5014344;28;20037;-73
2023/11/21 05:39:24;;;;;;;36.28;33.95;;;11.70;99.90;;;;;;4998200;28;20042;-72
2023/11/21 05:41:50;;;;;;;24.55;22.67;;;11.70;99.90;;;;;;4995770;28;20061;-73
2023/11/21 05:44:16;;;;;;;37.53;34.70;;;11.70;99.90;;;;;;4994315;28;20379;-73
2023/11/21 05:46:43;;;;;;;36.63;34.30;;;11.70;99.90;;;;;;4993964;28;20054;-73
2023/11/21 05:49:09;;;;;;;34.45;32.25;;;11.70;99.90;;;;;;4995344;28;20034;-73
2023/11/21 05:51:35;;;;;;;33.17;30.95;;;11.70;99.90;;;;;;4994568;28;20042;-72
2023/11/21 05:54:01;;;;;;;30.58;28.13;;;11.70;99.90;;;;;;4994928;28;20459;-72
2023/11/21 05:56:27;;;;;;;30.13;28.20;;;11.60;99.90;;;;;;4992485;28;20022;-72
2023/11/21 05:58:53;;;;;;;26.23;24.33;;;11.60;99.90;;;;;;4993790;28;20047;-73
2023/11/21 06:01:19;;;;;;;30.42;28.38;;;11.60;99.90;;;;;;4994099;28;20054;-73
2023/11/21 06:03:45;;;;;;;28.63;26.55;;;11.60;99.90;;;;;;4994506;28;20495;-73
2023/11/21 06:06:11;;;;;;;32.60;30.27;;;11.70;99.90;;;;;;4994377;28;20043;-73
2023/11/21 06:08:38;;;;;;;37.53;35.22;;;11.70;99.90;;;;;;4994596;28;20502;-73
2023/11/21 06:11:04;;;;;;;33.47;31.52;;;11.70;99.90;;;;;;4993838;28;20038;-73
2023/11/21 06:13:30;;;;;;;36.38;34.25;;;11.70;99.90;;;;;;4993856;28;20427;-72
2023/11/21 06:15:56;;;;;;;25.70;23.75;;;11.70;99.90;;;;;;5001472;28;20042;-73
2023/11/21 06:18:22;;;;;;;40.17;37.40;;;11.70;99.90;;;;;;4994004;28;20029;-73
2023/11/21 06:20:48;;;;;;;35.78;33.65;;;11.60;99.90;;;;;;4993872;28;20034;-73
2023/11/21 06:23:16;;;;;;;34.40;32.47;;;11.60;99.90;;;;;;5001776;28;20571;-73
2023/11/21 06:25:42;;;;;;;35.65;33.33;;;11.60;99.90;;;;;;5002935;28;20045;-72
2023/11/21 06:28:08;;;;;;;37.85;35.03;;;11.60;99.90;;;;;;4994202;28;20038;-73
2023/11/21 06:30:34;;;;;;;37.03;34.85;;;11.70;99.90;;;;;;4993543;28;20034;-73
2023/11/21 06:33:00;;;;;;;41.80;39.05;;;11.70;99.90;;;;;;4995499;28;20388;-73
2023/11/21 06:35:30;;;;;;;31.15;29.30;;;11.70;99.90;;;;;;4993538;28;20069;-72
2023/11/21 06:37:56;;;;;;;38.50;36.10;;;11.70;99.90;;;;;;4993802;28;20058;-68
2023/11/21 06:40:22;;;;;;;33.72;31.70;;;11.70;99.90;;;;;;4993449;28;20057;-67
2023/11/21 06:42:48;;;;;;;62.42;34.50;;;11.70;99.90;;;;;;4993447;28;20038;-67
2023/11/21 06:45:15;;;;;;;33.13;31.00;;;11.70;99.90;;;;;;4994055;28;20030;-68
2023/11/21 06:47:41;;;;;;;33.63;31.42;;;11.70;99.90;;;;;;4993349;28;20033;-67
2023/11/21 06:50:08;;;;;;;35.58;33.33;;;11.70;99.90;;;;;;4993674;28;20398;-67
2023/11/21 06:52:34;;;;;;;31.38;29.42;;;11.60;99.90;;;;;;4994191;28;20387;-67
2023/11/21 06:55:00;;;;;;;34.95;32.63;;;11.60;99.90;;;;;;4992763;28;20030;-67
2023/11/21 06:57:27;;;;;;;33.85;31.65;;;11.70;99.90;;;;;;4992758;28;20030;-67
2023/11/21 06:59:53;;;;;;;35.35;33.05;;;11.70;99.90;;;;;;4993412;28;20034;-67
2023/11/21 07:02:19;;;;;;;40.63;38.15;;;11.70;99.90;;;;;;4993195;28;20042;-67
2023/11/21 07:04:48;;;;;;;33.97;31.90;;;11.80;99.90;;;;;;4993410;28;20026;-67
2023/11/21 07:07:14;;;;;;;25.50;23.80;;;11.70;99.90;;;;;;4992820;28;20390;-67
2023/11/21 07:09:40;;;;;;;36.33;34.08;;;11.70;99.90;;;;;;4993349;28;20023;-67
2023/11/21 07:12:07;;;;;;;28.98;27.25;;;11.70;99.90;;;;;;4992782;28;20399;-67
2023/11/21 07:14:34;;;;;;;22.50;20.95;;;11.70;99.90;;;;;;5000710;28;20049;-67
2023/11/21 07:17:00;;;;;;;25.00;23.40;;;11.70;99.90;;;;;;4994119;28;20038;-67
2023/11/21 07:19:26;;;;;;;28.58;26.50;;;11.70;99.90;;;;;;4992861;28;20110;-67
2023/11/21 07:21:52;;;;;;;25.65;23.98;;;11.60;99.90;;;;;;4992866;28;20415;-67
2023/11/21 07:24:18;;;;;;;26.83;24.98;;;11.60;99.90;;;;;;4993897;28;20061;-67
2023/11/21 07:26:45;;;;;;;23.05;21.10;;;11.50;99.90;;;;;;4987645;28;20043;-67
2023/11/21 07:29:11;;;;;;;23.25;21.70;;;11.50;99.90;;;;;;4993034;28;20037;-67
2023/11/21 07:31:38;;;;;;;19.60;18.30;;;11.50;99.90;;;;;;4992522;28;20467;-67
2023/11/21 07:34:04;;;;;;;22.85;21.30;;;11.40;99.90;;;;;;4991927;28;20367;-67
2023/11/21 07:36:30;;;;;;;20.35;18.92;;;11.40;99.90;;;;;;4992467;28;20045;-67
2023/11/21 07:38:56;;;;;;;20.88;19.40;;;11.40;99.90;;;;;;4992937;28;20034;-67
2023/11/21 07:41:22;;;;;;;19.75;18.17;;;11.40;99.90;;;;;;4992360;28;20483;-67
2023/11/21 07:43:48;;;;;;;20.05;18.20;;;11.40;99.90;;;;;;4991206;28;20043;-67
2023/11/21 07:46:14;;;;;;;19.30;17.75;;;11.40;99.90;;;;;;4998980;28;20399;-67
2023/11/21 07:48:46;;;;;;;19.52;18.23;;;11.50;99.90;;;;;;4979298;28;20034;-68
2023/11/21 07:51:13;;;;;;;18.67;17.45;;;11.40;99.90;;;;;;4971982;28;20437;-67
2023/11/21 07:53:39;;;;;;;17.65;16.38;;;11.40;99.90;;;;;;4972669;28;20043;-67
2023/11/21 07:56:06;;;;;;;18.98;17.95;;;11.40;99.90;;;;;;4972974;28;20054;-67
2023/11/21 07:58:35;;;;;;;20.55;19.05;;;11.40;99.90;;;;;;4978980;28;20038;-67
2023/11/21 08:01:02;;;;;;;27.95;26.25;;;11.40;99.90;;;;;;4991353;28;20031;-67
2023/11/21 08:03:30;;;;;;;26.25;24.65;;;11.40;99.90;;;;;;4991115;28;20495;-67
2023/11/21 08:05:57;;;;;;;29.63;27.45;;;11.30;99.90;;;;;;4991909;28;20053;-69
2023/11/21 08:08:23;;;;;;;27.05;24.85;;;11.40;99.90;;;;;;4990356;28;20045;-67
2023/11/21 08:10:56;;;;;;;40.78;38.05;;;11.40;99.90;;;;;;4982971;28;20027;-66
2023/11/21 08:13:24;;;;;;;34.05;32.00;;;11.40;99.90;;;;;;4984499;28;20041;-67
2023/11/21 08:15:50;;;;;;;34.10;31.83;;;11.50;99.90;;;;;;4985288;28;20042;-73
2023/11/21 08:18:17;;;;;;;28.00;26.02;;;11.50;99.90;;;;;;4991798;28;20415;-72
2023/11/21 08:20:47;;;;;;;32.75;30.33;;;11.50;99.90;;;;;;4981151;28;20038;-73
2023/11/21 08:23:15;;;;;;;32.25;30.02;;;11.40;99.90;;;;;;4976490;28;20051;-71
2023/11/21 08:25:42;;;;;;;26.83;24.95;;;11.40;99.90;;;;;;4982541;28;20480;-72
2023/11/21 08:28:09;;;;;;;26.50;24.83;;;11.40;99.90;;;;;;4992634;28;20023;-73
2023/11/21 08:30:35;;;;;;;24.98;23.35;;;11.50;99.90;;;;;;4992186;28;20034;-73
2023/11/21 08:33:03;;;;;;;26.83;25.05;;;11.50;99.90;;;;;;4992917;28;20045;-72
2023/11/21 08:35:29;;;;;;;35.47;33.28;;;11.60;99.90;;;;;;4991948;28;20058;-71
2023/11/21 08:37:55;;;;;;;19.23;17.83;;;11.50;99.90;;;;;;4992080;28;20054;-71
2023/11/21 08:40:22;;;;;;;23.55;22.15;;;11.60;99.90;;;;;;4991837;28;20049;-72
2023/11/21 08:42:48;;;;;;;26.25;24.00;;;11.50;99.90;;;;;;4983871;28;20050;-72
2023/11/21 08:45:15;;;;;;;193.43;31.20;;;11.50;99.90;;;;;;4988974;28;20042;-71
2023/11/21 08:47:43;;;;;;;38.75;36.35;;;11.40;99.90;;;;;;4996728;28;20045;-72
2023/11/21 08:50:11;;;;;;;28.20;26.50;;;11.50;99.90;;;;;;4991066;28;20043;-72
2023/11/21 08:52:38;;;;;;;27.25;25.65;;;11.60;99.90;;;;;;4981031;28;20407;-72
2023/11/21 08:55:07;;;;;;;32.45;30.45;;;11.60;99.90;;;;;;4985963;28;20550;-72
2023/11/21 08:57:37;;;;;;;37.13;34.80;;;11.60;99.90;;;;;;4989400;28;20039;-72
2023/11/21 09:00:07;;;;;;;38.67;36.35;;;11.70;99.90;;;;;;4988081;28;20053;-66
2023/11/21 09:02:34;;;;;;;35.83;33.65;;;11.80;99.90;;;;;;4987966;28;20069;-72
2023/11/21 09:05:03;;;;;;;34.20;31.95;;;11.80;99.90;;;;;;4986951;28;20035;-71
2023/11/21 09:07:29;;;;;;;29.30;27.48;;;11.80;99.90;;;;;;4990784;28;20053;-71
2023/11/21 09:09:55;;;;;;;25.15;23.42;;;11.90;99.90;;;;;;4991918;28;20034;-72
2023/11/21 09:12:21;;;;;;;30.35;28.58;;;12.00;99.90;;;;;;4994554;28;20042;-71
2023/11/21 09:14:47;;;;;;;26.75;25.02;;;12.00;99.90;;;;;;4995754;28;20041;-72
2023/11/21 09:17:14;;;;;;;31.35;29.13;;;12.00;99.90;;;;;;5009872;28;20479;-71
2023/11/21 09:19:40;;;;;;;26.20;24.60;;;12.00;99.90;;;;;;4995961;28;20043;-71
2023/11/21 09:22:07;;;;;;;26.95;25.38;;;12.00;99.90;;;;;;4994632;28;20057;-71
2023/11/21 09:24:33;;;;;;;38.15;35.92;;;12.00;99.90;;;;;;4994771;28;20057;-70
2023/11/21 09:26:59;;;;;;;26.35;24.65;;;12.00;99.90;;;;;;4994698;28;20035;-70
2023/11/21 09:29:26;;;;;;;39.80;37.45;;;12.00;99.90;;;;;;4989682;28;20042;-71
2023/11/21 09:31:54;;;;;;;44.58;41.92;;;12.00;99.90;;;;;;4979187;28;20042;-70
2023/11/21 09:34:21;;;;;;;36.35;34.33;;;12.00;99.90;;;;;;4983371;28;20046;-70
2023/11/21 09:36:47;;;;;;;42.55;39.97;;;12.00;99.90;;;;;;4991602;28;20026;-70
2023/11/21 09:39:17;;;;;;;46.15;43.42;;;11.90;99.90;;;;;;4982538;28;20038;-70
2023/11/21 09:41:45;;;;;;;43.67;40.95;;;12.00;99.90;;;;;;5005276;28;20049;-70
2023/11/21 09:44:13;;;;;;;43.03;40.65;;;12.00;99.90;;;;;;4986780;28;20046;-70
2023/11/21 09:46:42;;;;;;;33.72;31.73;;;12.00;99.90;;;;;;4990635;28;20033;-71
2023/11/21 09:49:12;;;;;;;42.08;39.28;;;12.10;99.90;;;;;;4966805;28;20042;-72
2023/11/21 09:51:42;;;;;;;45.25;42.35;;;12.20;99.90;;;;;;4986300;28;20111;-71
2023/11/21 09:54:10;;;;;;;46.87;44.37;;;12.30;99.90;;;;;;4977908;28;20395;-71
2023/11/21 09:56:37;;;;;;;30.15;28.33;;;12.30;99.90;;;;;;4993376;28;20451;-71
2023/11/21 09:59:09;;;;;;;37.13;34.47;;;12.30;99.90;;;;;;4972685;28;20481;-71
2023/11/21 10:01:39;;;;;;;31.20;29.02;;;12.30;99.90;;;;;;4985293;28;20041;-71
2023/11/21 10:04:11;;;;;;;29.63;27.70;;;12.30;99.90;;;;;;4993167;28;20053;-71
2023/11/21 10:06:45;;;;;;;43.22;40.50;;;12.40;99.90;;;;;;4992718;28;20379;-71
2023/11/21 10:09:12;;;;;;;26.77;24.95;;;12.40;99.90;;;;;;4973041;28;20042;-71
2023/11/21 10:11:42;;;;;;;25.10;23.40;;;12.40;99.90;;;;;;4997697;28;20034;-71
2023/11/21 10:14:09;;;;;;;34.00;31.83;;;12.30;99.90;;;;;;4993093;28;20023;-71
2023/11/21 10:16:37;;;;;;;30.23;28.33;;;12.40;99.90;;;;;;4992664;28;20042;-71
2023/11/21 10:19:03;;;;;;;22.67;21.05;;;12.40;99.90;;;;;;4992936;28;20034;-71
2023/11/21 10:21:29;;;;;;;27.42;25.52;;;12.40;99.90;;;;;;4997841;28;20049;-71
2023/11/21 10:23:55;;;;;;;28.27;26.45;;;12.40;99.90;;;;;;4989564;28;20042;-71
2023/11/21 10:26:23;;;;;;;22.88;21.30;;;12.40;99.90;;;;;;4989226;28;20046;-67
2023/11/21 10:28:59;;;;;;;23.67;21.38;;;12.50;99.90;;;;;;4989273;28;20045;-67
2023/11/21 10:31:27;;;;;;;22.02;20.40;;;12.40;99.90;;;;;;4993350;28;20377;-67
2023/11/21 10:33:53;;;;;;;34.05;31.85;;;12.50;99.90;;;;;;4989117;28;20352;-67
2023/11/21 10:36:28;;;;;;;29.40;27.33;;;12.60;99.90;;;;;;4989984;28;20046;-67
2023/11/21 10:38:54;;;;;;;34.90;32.40;;;12.60;99.90;;;;;;4974787;28;20365;-67
2023/11/21 10:41:21;;;;;;;45.88;42.95;;;12.60;99.90;;;;;;4992675;28;20048;-67
2023/11/21 10:43:47;;;;;;;44.97;42.60;;;12.60;99.90;;;;;;5013307;28;20049;-67
2023/11/21 10:46:14;;;;;;;33.20;31.20;;;12.70;99.90;;;;;;4989433;28;20029;-67
2023/11/21 10:48:42;;;;;;;61.13;57.95;;;12.80;99.90;;;;;;5002268;28;20491;-67
2023/11/21 10:51:09;;;;;;;44.20;41.70;;;12.80;99.90;;;;;;4990163;28;20038;-67
2023/11/21 10:53:41;;;;;;;45.92;43.45;;;12.80;99.90;;;;;;4988776;28;20525;-67
2023/11/21 10:56:10;;;;;;;35.40;33.22;;;12.80;99.90;;;;;;4990607;28;20047;-67
2023/11/21 10:58:36;;;;;;;28.40;26.63;;;12.80;99.90;;;;;;4991531;28;20042;-67
2023/11/21 11:01:03;;;;;;;41.08;38.35;;;12.80;99.90;;;;;;4990334;28;20042;-67
2023/11/21 11:03:33;;;;;;;51.95;49.10;;;12.90;99.90;;;;;;4987852;28;20062;-69
2023/11/21 11:06:00;;;;;;;42.90;40.55;;;12.80;99.90;;;;;;4989979;28;20483;-69
2023/11/21 11:08:27;;;;;;;44.33;41.88;;;12.90;99.90;;;;;;4981502;28;20046;-69
2023/11/21 11:10:53;;;;;;;33.28;31.17;;;12.90;99.90;;;;;;4994622;28;20057;-69
2023/11/21 11:13:19;;;;;;;66.45;63.00;;;12.90;99.90;;;;;;4998573;28;20030;-69
2023/11/21 11:15:48;;;;;;;74.15;70.25;;;12.90;99.90;;;;;;4987615;28;20034;-69
2023/11/21 11:18:15;;;;;;;51.17;48.28;;;12.90;99.90;;;;;;4992419;28;20031;-69
2023/11/21 11:20:43;;;;;;;59.17;55.85;;;12.90;99.90;;;;;;4983582;28;20034;-69
2023/11/21 11:23:36;;;;;;;39.08;36.83;;;12.90;99.90;;;;;;4978702;28;20082;-69
2023/11/21 11:26:27;;;;;;;55.05;51.60;;;13.00;99.90;;;;;;4987130;28;20061;-70
2023/11/21 11:29:49;;;;;;;63.28;60.00;;;12.90;99.90;;;;;;4979984;28;20053;-72
2023/11/21 11:32:47;;;;;;;80.50;76.28;;;12.90;99.90;;;;;;4975854;28;20050;-71
2023/11/21 11:35:25;;;;;;;61.28;58.03;;;13.00;99.90;;;;;;4973296;28;20521;-71
2023/11/21 11:37:51;;;;;;;61.67;58.17;;;12.90;99.90;;;;;;4989224;28;20049;-71
2023/11/21 11:40:19;;;;;;;68.57;64.47;;;13.00;99.90;;;;;;4972979;28;20061;-70
2023/11/21 11:43:02;;;;;;;65.10;61.60;;;13.00;99.90;;;;;;4993081;28;20407;-71
2023/11/21 11:45:35;;;;;;;54.08;50.65;;;13.00;99.90;;;;;;4988562;28;20367;-71
2023/11/21 11:48:02;;;;;;;55.95;53.05;;;13.00;99.90;;;;;;4959696;28;20039;-71
2023/11/21 11:50:28;;;;;;;50.92;48.03;;;13.10;99.90;;;;;;4956537;28;20039;-71
2023/11/21 11:52:54;;;;;;;52.55;49.40;;;13.10;99.90;;;;;;4989443;28;20372;-72
2023/11/21 11:55:21;;;;;;;50.33;47.65;;;13.10;99.90;;;;;;4973314;28;20035;-71
2023/11/21 11:57:51;;;;;;;56.97;54.00;;;13.10;99.90;;;;;;4972762;28;20772;-71
2023/11/21 12:00:24;;;;;;;58.75;55.63;;;13.00;99.90;;;;;;4959823;28;20138;-71
2023/11/21 12:02:52;;;;;;;69.25;65.40;;;13.00;99.90;;;;;;4971204;28;20071;-71
2023/11/21 12:05:19;;;;;;;44.92;42.35;;;13.10;99.90;;;;;;4985025;28;20030;-71
2023/11/21 12:07:47;;;;;;;41.35;38.85;;;13.30;99.90;;;;;;4990401;28;20046;-71
2023/11/21 12:10:14;;;;;;;58.35;55.25;;;13.40;99.90;;;;;;4972157;28;20034;-71
2023/11/21 12:12:48;;;;;;;40.70;37.88;;;13.50;99.90;;;;;;4990343;28;20061;-71
2023/11/21 12:15:14;;;;;;;69.38;65.28;;;13.70;99.90;;;;;;5003112;28;20037;-71
2023/11/21 12:17:44;;;;;;;60.40;57.20;;;13.70;99.90;;;;;;5003553;28;20026;-71
2023/11/21 12:20:14;;;;;;;54.53;51.80;;;13.80;99.90;;;;;;4990581;28;20037;-71
2023/11/21 12:22:47;;;;;;;60.30;57.22;;;13.80;99.90;;;;;;4989378;28;20045;-71
2023/11/21 12:25:21;;;;;;;58.30;55.20;;;13.80;99.90;;;;;;4993696;28;20045;-71
2023/11/21 12:27:52;;;;;;;63.30;60.10;;;13.80;99.90;;;;;;4996024;28;20030;-71